aviador You're here:

UGTB Decoded Metar

TBILISI/NOVO-AL in GEORGIA
Report Time2017-06-25 20:30:00
UTC Time2017-06-25 20:37:10
Flight Rules vfr VFR
Wind310° at 22 kt
W.Decomp.*RWY 31: 21.9 kt HW 1.5 kt LCW
W.Rank310° ranks 1
Current wind is above 310° avg. (17.5)
Visibility9999 m
Phenomena:N/A
Clouds:N/A
Expected CloudBase > 3,200 ft AGL from Temp-Dew spread
CeilingNone
Temp21°C (ISA +9)
Dew Point13°C (60% RH)
AAT14.0°C
QNH1018 hPa
Density Alt2,736 ft
Elevation1,624 ft
Report Wrong Elevation
Raw Report
METAR UGTB 252030Z 31022KT CAVOK 21/13 Q1018 R31L/CLRD70 NOSIG=

Extra information for UGTB:More info

Metar Taf Metar & Taf Last 4 Metars F.Rules Stats Wind Profile Meteogram Temp Stats Airport Information Weather charts Add Link Nearby VenuesMetar ALERT Operation Metar Decoded Social comments